createdAt,value
2023-02-27T00:01:53.900Z,0.50
2023-02-27T00:04:20.629Z,0.50
2023-02-27T00:06:47.263Z,0.50
2023-02-27T00:09:13.984Z,0.50
2023-02-27T00:11:40.678Z,0.50
2023-02-27T00:14:07.282Z,0.50
2023-02-27T00:16:34.506Z,0.50
2023-02-27T00:19:04.685Z,0.50
2023-02-27T00:21:32.180Z,0.50
2023-02-27T00:23:58.785Z,0.50
2023-02-27T00:26:25.412Z,0.50
2023-02-27T00:28:52.185Z,0.60
2023-02-27T00:31:18.939Z,0.50
2023-02-27T00:33:45.626Z,0.50
2023-02-27T00:36:12.633Z,0.57
2023-02-27T00:38:39.298Z,0.50
2023-02-27T00:41:06.000Z,0.60
2023-02-27T00:43:32.739Z,0.50
2023-02-27T00:45:59.392Z,0.50
2023-02-27T00:48:27.829Z,0.60
2023-02-27T00:50:54.886Z,0.60
2023-02-27T00:53:21.779Z,0.70
2023-02-27T00:55:49.240Z,0.50
2023-02-27T00:58:16.200Z,0.60
2023-02-27T01:00:42.811Z,0.60
2023-02-27T01:03:09.723Z,0.60
2023-02-27T01:05:36.354Z,0.50
2023-02-27T01:08:03.114Z,0.60
2023-02-27T01:10:30.070Z,0.60
2023-02-27T01:12:56.994Z,0.50
2023-02-27T01:15:23.628Z,0.50
2023-02-27T01:17:50.245Z,0.57
2023-02-27T01:20:17.357Z,0.60
2023-02-27T01:22:45.381Z,0.60
2023-02-27T01:25:13.087Z,0.60
2023-02-27T01:27:39.736Z,0.60
2023-02-27T01:30:07.070Z,0.50
2023-02-27T01:32:33.737Z,0.60
2023-02-27T01:35:00.386Z,0.50
2023-02-27T01:37:27.096Z,0.60
2023-02-27T01:39:53.691Z,0.60
2023-02-27T01:42:23.648Z,0.60
2023-02-27T01:45:12.334Z,0.60
2023-02-27T01:47:49.950Z,0.50
2023-02-27T01:50:18.262Z,0.60
2023-02-27T01:52:48.157Z,0.60
2023-02-27T01:55:15.651Z,0.60
2023-02-27T01:57:45.410Z,0.60
2023-02-27T02:00:13.378Z,0.60
2023-02-27T02:02:44.404Z,0.60
2023-02-27T02:07:41.994Z,0.60
2023-02-27T02:10:11.923Z,0.60
2023-02-27T02:12:40.443Z,0.60
2023-02-27T02:15:09.227Z,0.60
2023-02-27T02:18:00.386Z,0.60
2023-02-27T02:20:55.508Z,0.40
2023-02-27T02:23:56.306Z,0.60
2023-02-27T02:26:42.010Z,0.60
2023-02-27T02:29:30.556Z,0.60
2023-02-27T02:32:21.530Z,0.60
2023-02-27T02:35:13.995Z,0.60
2023-02-27T02:37:43.296Z,0.60
2023-02-27T02:40:38.045Z,0.60
2023-02-27T02:43:25.762Z,0.50
2023-02-27T02:46:13.199Z,0.60
2023-02-27T02:48:46.732Z,0.60
2023-02-27T02:53:59.506Z,0.68
2023-02-27T02:56:32.712Z,0.60
2023-02-27T02:59:18.810Z,0.50
2023-02-27T03:01:54.196Z,0.60
2023-02-27T03:04:28.049Z,0.57
2023-02-27T03:07:32.932Z,0.50
2023-02-27T03:10:09.057Z,0.60
2023-02-27T03:12:40.800Z,0.60
2023-02-27T03:15:27.475Z,0.50
2023-02-27T03:18:10.378Z,0.60
2023-02-27T03:20:42.658Z,0.40
2023-02-27T03:23:16.863Z,0.60
2023-02-27T03:25:46.421Z,0.50
2023-02-27T03:28:23.932Z,0.50
2023-02-27T03:31:01.668Z,0.60
2023-02-27T03:33:36.140Z,0.60
2023-02-27T03:36:16.295Z,0.60
2023-02-27T03:39:00.293Z,0.50
2023-02-27T03:41:49.548Z,0.50
2023-02-27T03:44:53.268Z,0.60
2023-02-27T03:47:20.278Z,0.60
2023-02-27T03:49:47.084Z,0.60
2023-02-27T03:52:14.724Z,0.60
2023-02-27T03:54:50.737Z,0.60
2023-02-27T03:57:17.537Z,0.60
2023-02-27T03:59:44.891Z,0.60
2023-02-27T04:02:11.785Z,0.60
2023-02-27T04:04:39.487Z,0.60
2023-02-27T04:07:25.175Z,0.50
2023-02-27T04:10:04.282Z,0.40
2023-02-27T04:13:02.583Z,0.60
2023-02-27T04:15:33.454Z,0.60
2023-02-27T04:18:32.512Z,0.70
2023-02-27T04:21:04.739Z,0.60
2023-02-27T04:24:01.820Z,0.60
2023-02-27T04:26:51.806Z,0.60
2023-02-27T04:29:37.232Z,0.60
2023-02-27T04:32:37.957Z,0.40
2023-02-27T04:35:13.136Z,0.60
2023-02-27T04:37:48.492Z,0.60
2023-02-27T04:40:27.908Z,0.60
2023-02-27T04:42:57.417Z,0.60
2023-02-27T04:45:26.489Z,0.60
2023-02-27T04:47:59.129Z,0.60
2023-02-27T04:50:30.894Z,0.50
2023-02-27T04:53:05.420Z,0.60
2023-02-27T04:55:38.147Z,0.60
2023-02-27T04:58:12.327Z,0.50
2023-02-27T05:00:41.480Z,0.60
2023-02-27T05:03:18.365Z,0.68
2023-02-27T05:05:48.755Z,0.70
2023-02-27T05:08:15.407Z,0.50
2023-02-27T05:10:54.638Z,0.60
2023-02-27T05:13:32.299Z,0.60
2023-02-27T05:16:12.471Z,0.70
2023-02-27T05:18:39.310Z,0.60
2023-02-27T05:21:15.530Z,0.60
2023-02-27T05:24:20.885Z,0.60
2023-02-27T05:27:09.276Z,0.60
2023-02-27T05:29:58.190Z,0.65
2023-02-27T05:32:40.940Z,0.57
2023-02-27T05:35:22.706Z,0.50
2023-02-27T05:38:14.240Z,0.70
2023-02-27T05:40:48.476Z,0.60
2023-02-27T05:43:36.128Z,0.70
2023-02-27T05:46:11.678Z,0.65
2023-02-27T05:48:47.185Z,0.60
2023-02-27T05:51:16.728Z,0.63
2023-02-27T05:53:50.236Z,0.60
2023-02-27T05:56:18.913Z,0.60
2023-02-27T05:59:00.843Z,0.60
2023-02-27T06:01:27.615Z,0.50
2023-02-27T06:03:54.316Z,0.70
2023-02-27T06:06:22.581Z,0.60
2023-02-27T06:08:49.662Z,0.68
2023-02-27T06:11:17.920Z,0.70
2023-02-27T06:13:44.602Z,0.70
2023-02-27T06:16:13.637Z,0.65
2023-02-27T06:18:40.620Z,0.60
2023-02-27T06:21:07.512Z,0.65
2023-02-27T06:23:34.201Z,0.70
2023-02-27T06:26:01.120Z,0.60
2023-02-27T06:28:27.925Z,0.65
2023-02-27T06:30:55.572Z,0.60
2023-02-27T06:33:22.280Z,0.70
2023-02-27T06:35:49.623Z,0.60
2023-02-27T06:38:16.877Z,0.60
2023-02-27T06:40:43.859Z,0.60
2023-02-27T06:43:10.464Z,0.60
2023-02-27T06:45:37.548Z,0.60
2023-02-27T06:48:04.579Z,0.50
2023-02-27T06:50:31.310Z,0.60
2023-02-27T06:52:57.993Z,0.60
2023-02-27T06:55:25.777Z,0.50
2023-02-27T06:57:52.602Z,0.50
2023-02-27T07:00:19.543Z,0.65
2023-02-27T07:02:46.192Z,0.60
2023-02-27T07:05:14.402Z,0.60
2023-02-27T07:07:41.242Z,0.55
2023-02-27T07:10:11.905Z,0.50
2023-02-27T07:12:39.624Z,0.50
2023-02-27T07:15:07.895Z,0.40
2023-02-27T07:17:34.612Z,0.50
2023-02-27T07:20:01.217Z,0.50
2023-02-27T07:22:27.928Z,0.40
2023-02-27T07:24:54.538Z,0.50
2023-02-27T07:27:21.291Z,0.40
2023-02-27T07:29:48.042Z,0.40
2023-02-27T07:32:14.819Z,0.40
2023-02-27T07:34:41.643Z,0.50
2023-02-27T07:37:08.977Z,0.40
2023-02-27T07:39:35.700Z,0.40
2023-02-27T07:42:02.611Z,0.40
2023-02-27T07:44:29.261Z,0.40
2023-02-27T07:46:55.952Z,0.40
2023-02-27T07:49:22.576Z,0.40
2023-02-27T07:51:49.187Z,0.50
2023-02-27T07:54:15.889Z,0.40
2023-02-27T07:56:42.868Z,0.40
2023-02-27T07:59:09.861Z,0.30
2023-02-27T08:01:36.536Z,0.40
2023-02-27T08:04:03.278Z,0.40
2023-02-27T08:06:30.329Z,0.40
2023-02-27T08:08:57.407Z,0.30
2023-02-27T08:11:24.155Z,0.40
2023-02-27T08:14:06.438Z,0.40
2023-02-27T08:16:33.599Z,0.30
2023-02-27T08:19:01.184Z,0.40
2023-02-27T08:21:28.810Z,0.40
2023-02-27T08:23:55.748Z,0.40
2023-02-27T08:26:23.418Z,0.40
2023-02-27T08:28:51.371Z,0.40
2023-02-27T08:31:18.251Z,0.50
2023-02-27T08:33:49.632Z,0.30
2023-02-27T08:36:19.898Z,0.40
2023-02-27T08:38:46.529Z,0.40
2023-02-27T08:41:13.189Z,0.40
2023-02-27T08:43:39.800Z,0.40
2023-02-27T08:46:06.654Z,0.30
2023-02-27T08:48:33.495Z,0.40
2023-02-27T08:51:00.143Z,0.40
2023-02-27T08:53:26.956Z,0.30
2023-02-27T08:55:53.833Z,0.50
2023-02-27T08:58:20.808Z,0.40
2023-02-27T09:00:47.831Z,0.40
2023-02-27T09:03:14.534Z,0.50
2023-02-27T09:05:42.546Z,0.40
2023-02-27T09:08:09.533Z,0.40
2023-02-27T09:10:36.665Z,0.30
2023-02-27T09:13:03.424Z,0.40
2023-02-27T09:15:31.890Z,0.40
2023-02-27T09:18:03.135Z,0.30
2023-02-27T09:20:35.971Z,0.30
2023-02-27T09:23:03.958Z,0.35
2023-02-27T09:25:31.059Z,0.40
2023-02-27T09:27:57.975Z,0.50
2023-02-27T09:30:25.065Z,0.40
2023-02-27T09:32:51.835Z,0.50
2023-02-27T09:35:20.599Z,0.40
2023-02-27T09:37:47.336Z,0.40
2023-02-27T09:40:21.057Z,0.50
2023-02-27T09:42:48.769Z,0.40
2023-02-27T09:45:24.376Z,0.50
2023-02-27T09:48:06.591Z,0.40
2023-02-27T09:50:48.547Z,0.40
2023-02-27T09:53:31.429Z,0.40
2023-02-27T09:56:06.921Z,0.30
2023-02-27T09:59:21.032Z,0.40
2023-02-27T10:01:52.809Z,0.40
2023-02-27T10:04:30.494Z,0.40
2023-02-27T10:07:18.381Z,0.40
2023-02-27T10:10:08.824Z,0.40
2023-02-27T10:13:05.372Z,0.40
2023-02-27T10:15:44.743Z,0.40
2023-02-27T10:18:28.404Z,0.32
2023-02-27T10:20:58.854Z,0.40
2023-02-27T10:23:37.678Z,0.40
2023-02-27T10:26:05.962Z,0.40
2023-02-27T10:28:33.740Z,0.30
2023-02-27T10:31:02.193Z,0.30
2023-02-27T10:33:41.920Z,0.30
2023-02-27T10:36:18.030Z,0.30
2023-02-27T10:38:58.267Z,0.30
2023-02-27T10:41:27.004Z,0.30
2023-02-27T10:43:58.264Z,0.35
2023-02-27T10:46:38.500Z,0.30
2023-02-27T10:49:21.249Z,0.30
2023-02-27T10:52:05.739Z,0.30
2023-02-27T10:54:32.447Z,0.20
2023-02-27T10:57:02.551Z,0.30
2023-02-27T10:59:33.087Z,0.30
2023-02-27T11:02:02.214Z,0.30
2023-02-27T11:04:28.969Z,0.30
2023-02-27T11:06:56.771Z,0.30
2023-02-27T11:09:41.676Z,0.38
2023-02-27T11:12:29.601Z,0.30
2023-02-27T11:14:59.719Z,0.30
2023-02-27T11:17:32.857Z,0.30
2023-02-27T11:20:02.627Z,0.20
2023-02-27T11:22:31.250Z,0.20
2023-02-27T11:25:30.261Z,0.30
2023-02-27T11:28:32.072Z,0.30
2023-02-27T11:31:14.858Z,0.30
2023-02-27T11:33:50.790Z,0.20
2023-02-27T11:36:18.042Z,0.20
2023-02-27T11:38:53.210Z,0.20
2023-02-27T11:41:21.261Z,0.28
2023-02-27T11:43:50.914Z,0.20
2023-02-27T11:46:48.145Z,0.20
2023-02-27T11:50:00.973Z,0.22
2023-02-27T11:52:36.814Z,0.30
2023-02-27T11:55:09.930Z,0.30
2023-02-27T11:57:40.457Z,0.20
2023-02-27T12:00:29.607Z,0.30
2023-02-27T12:02:56.348Z,0.20
2023-02-27T12:05:29.122Z,0.20
2023-02-27T12:08:02.594Z,0.20
2023-02-27T12:10:35.305Z,0.20
2023-02-27T12:13:05.221Z,0.20
2023-02-27T12:16:00.331Z,0.20
2023-02-27T12:18:34.551Z,0.20
2023-02-27T12:21:10.069Z,0.20
2023-02-27T12:24:09.615Z,0.20
2023-02-27T12:26:44.969Z,0.20
2023-02-27T12:29:39.239Z,0.20
2023-02-27T12:32:19.924Z,0.20
2023-02-27T12:34:48.961Z,0.20
2023-02-27T12:37:26.172Z,0.10
2023-02-27T12:39:55.987Z,0.20
2023-02-27T12:42:50.081Z,0.20
2023-02-27T12:45:31.867Z,0.20
2023-02-27T12:48:25.378Z,0.20
2023-02-27T12:51:26.333Z,0.20
2023-02-27T12:54:48.027Z,0.10
2023-02-27T12:57:53.454Z,0.20
2023-02-27T13:00:22.872Z,0.10
2023-02-27T13:03:08.361Z,0.20
2023-02-27T13:05:37.174Z,0.20
2023-02-27T13:08:09.680Z,0.20
2023-02-27T13:10:54.137Z,0.20
2023-02-27T13:13:28.241Z,0.20
2023-02-27T13:16:11.684Z,0.20
2023-02-27T13:18:53.593Z,0.20
2023-02-27T13:21:28.982Z,0.20
2023-02-27T13:24:14.959Z,0.13
2023-02-27T13:26:48.709Z,0.20
2023-02-27T13:29:18.440Z,0.20
2023-02-27T13:32:07.462Z,0.20
2023-02-27T13:34:39.807Z,0.20
2023-02-27T13:37:08.886Z,0.20
2023-02-27T13:39:48.863Z,0.30
2023-02-27T13:42:28.016Z,0.30
2023-02-27T13:45:00.843Z,0.20
2023-02-27T13:47:30.755Z,0.20
2023-02-27T13:50:01.665Z,0.10
2023-02-27T13:52:31.166Z,0.20
2023-02-27T13:55:06.193Z,0.20
2023-02-27T13:57:38.445Z,0.20
2023-02-27T14:00:21.533Z,0.10
2023-02-27T14:03:00.371Z,0.20
2023-02-27T14:05:48.175Z,0.20
2023-02-27T14:08:19.469Z,0.20
2023-02-27T14:11:02.861Z,0.20
2023-02-27T14:13:52.242Z,0.20
2023-02-27T14:16:37.688Z,0.20
2023-02-27T14:19:24.265Z,0.20
2023-02-27T14:22:24.549Z,0.20
2023-02-27T14:25:06.516Z,0.20
2023-02-27T14:27:48.035Z,0.20
